createdAt,value
2023-10-29T00:01:00.210Z,96229.50
2023-10-29T00:03:27.962Z,96235.28
2023-10-29T00:05:55.675Z,96235.47
2023-10-29T00:08:23.328Z,96232.81
2023-10-29T00:10:50.947Z,96232.66
2023-10-29T00:13:18.540Z,96234.97
2023-10-29T00:15:46.131Z,96233.75
2023-10-29T00:18:14.165Z,96241.63
2023-10-29T00:20:41.877Z,96236.94
2023-10-29T00:23:09.533Z,96237.16
2023-10-29T00:25:37.113Z,96226.66
2023-10-29T00:28:04.905Z,96228.91
2023-10-29T00:30:32.542Z,96223.31
2023-10-29T00:33:00.330Z,96218.59
2023-10-29T00:35:28.103Z,96202.94
2023-10-29T00:37:55.788Z,96209.13
2023-10-29T00:40:23.351Z,96219.59
2023-10-29T00:42:50.935Z,96224.97
2023-10-29T00:45:18.533Z,96230.75
2023-10-29T00:47:46.471Z,96230.97
2023-10-29T00:50:14.262Z,96222.72
2023-10-29T00:52:42.118Z,96221.69
2023-10-29T00:55:10.344Z,96217.75
2023-10-29T00:57:38.412Z,96214.84
2023-10-29T01:00:07.636Z,96211.75
2023-10-29T01:02:35.563Z,96214.34
2023-10-29T01:05:06.030Z,96211.06
2023-10-29T01:07:34.422Z,96202.97
2023-10-29T01:10:02.096Z,96207.88
2023-10-29T01:12:30.631Z,96203.34
2023-10-29T01:15:05.808Z,96205.22
2023-10-29T01:17:33.695Z,96202.13
2023-10-29T01:20:05.127Z,96199.00
2023-10-29T01:22:34.873Z,96184.56
2023-10-29T01:25:06.767Z,96182.72
2023-10-29T01:27:35.341Z,96185.97
2023-10-29T01:30:04.021Z,96183.53
2023-10-29T01:32:31.719Z,96178.16
2023-10-29T01:34:59.492Z,96177.34
2023-10-29T01:37:27.102Z,96180.72
2023-10-29T01:39:54.895Z,96170.41
2023-10-29T01:42:22.525Z,96169.38
2023-10-29T01:44:50.350Z,96160.50
2023-10-29T01:47:18.156Z,96146.09
2023-10-29T01:49:45.704Z,96147.94
2023-10-29T01:52:13.307Z,96138.94
2023-10-29T01:54:40.991Z,96141.84
2023-10-29T01:57:08.571Z,96134.03
2023-10-29T01:59:36.439Z,96132.41
2023-10-29T02:02:04.322Z,96132.03
2023-10-29T02:04:33.429Z,96134.69
2023-10-29T02:07:01.005Z,96139.22
2023-10-29T02:09:29.174Z,96133.50
2023-10-29T02:11:56.803Z,96127.78
2023-10-29T02:14:24.537Z,96127.19
2023-10-29T02:16:52.684Z,96125.53
2023-10-29T02:19:20.236Z,96124.34
2023-10-29T02:21:47.825Z,96116.53
2023-10-29T02:24:15.401Z,96120.63
2023-10-29T02:26:43.002Z,96119.78
2023-10-29T02:29:10.680Z,96122.47
2023-10-29T02:31:38.388Z,96111.13
2023-10-29T02:34:06.002Z,96102.84
2023-10-29T02:36:33.764Z,96104.28
2023-10-29T02:39:01.327Z,96096.84
2023-10-29T02:41:28.986Z,96102.78
2023-10-29T02:43:56.598Z,96095.56
2023-10-29T02:46:24.182Z,96102.31
2023-10-29T02:48:52.157Z,96112.59
2023-10-29T02:51:19.779Z,96102.31
2023-10-29T02:53:47.438Z,96090.81
2023-10-29T02:56:15.044Z,96090.59
2023-10-29T02:58:42.607Z,96080.09
2023-10-29T03:01:10.710Z,96098.03
2023-10-29T03:03:39.136Z,96095.94
2023-10-29T03:06:09.227Z,96101.09
2023-10-29T03:08:37.737Z,96106.66
2023-10-29T03:11:05.377Z,96110.72
2023-10-29T03:13:32.992Z,96119.22
2023-10-29T03:16:00.748Z,96104.78
2023-10-29T03:18:30.556Z,96105.97
2023-10-29T03:20:58.391Z,96104.72
2023-10-29T03:23:27.146Z,96105.75
2023-10-29T03:26:01.947Z,96112.53
2023-10-29T03:28:30.761Z,96104.50
2023-10-29T03:30:58.371Z,96105.75
2023-10-29T03:33:25.998Z,96103.81
2023-10-29T03:35:53.682Z,96101.72
2023-10-29T03:38:22.280Z,96101.38
2023-10-29T03:40:49.868Z,96098.34
2023-10-29T03:43:17.828Z,96095.44
2023-10-29T03:45:45.636Z,96092.75
2023-10-29T03:48:16.528Z,96099.06
2023-10-29T03:50:44.307Z,96091.88
2023-10-29T03:53:11.989Z,96095.94
2023-10-29T03:55:39.613Z,96098.63
2023-10-29T03:58:07.213Z,96103.38
2023-10-29T04:00:34.885Z,96095.13
2023-10-29T04:03:02.767Z,96102.09
2023-10-29T04:05:30.557Z,96098.63
2023-10-29T04:07:58.140Z,96108.31
2023-10-29T04:10:25.733Z,96110.97
2023-10-29T04:12:53.301Z,96107.69
2023-10-29T04:15:20.917Z,96091.03
2023-10-29T04:17:49.606Z,96095.72
2023-10-29T04:20:17.813Z,96095.50
2023-10-29T04:22:45.800Z,96093.06
2023-10-29T04:25:13.368Z,96098.19
2023-10-29T04:27:41.002Z,96087.75
2023-10-29T04:30:09.237Z,96096.84
2023-10-29T04:32:36.913Z,96099.34
2023-10-29T04:35:05.156Z,96087.63
2023-10-29T04:37:32.739Z,96085.91
2023-10-29T04:40:00.307Z,96089.78
2023-10-29T04:42:27.898Z,96090.16
2023-10-29T04:44:55.583Z,96096.69
2023-10-29T04:47:23.177Z,96094.66
2023-10-29T04:49:50.890Z,96094.81
2023-10-29T04:52:18.505Z,96084.94
2023-10-29T04:54:46.264Z,96084.13
2023-10-29T04:57:14.314Z,96092.59
2023-10-29T04:59:42.025Z,96075.94
2023-10-29T05:02:09.836Z,96075.94
2023-10-29T05:04:37.404Z,96064.78
2023-10-29T05:07:05.066Z,96063.91
2023-10-29T05:09:32.734Z,96053.19
2023-10-29T05:12:00.318Z,96052.50
2023-10-29T05:14:28.201Z,96039.25
2023-10-29T05:16:55.936Z,96048.00
2023-10-29T05:19:23.685Z,96047.09
2023-10-29T05:21:51.733Z,96044.78
2023-10-29T05:24:19.333Z,96046.03
2023-10-29T05:26:46.959Z,96049.53
2023-10-29T05:29:14.580Z,96046.66
2023-10-29T05:31:42.210Z,96052.34
2023-10-29T05:34:09.886Z,96048.69
2023-10-29T05:36:37.491Z,96059.28
2023-10-29T05:39:08.076Z,96058.84
2023-10-29T05:41:35.675Z,96067.09
2023-10-29T05:44:03.333Z,96066.66
2023-10-29T05:46:30.985Z,96069.16
2023-10-29T05:48:58.560Z,96064.56
2023-10-29T05:51:26.212Z,96067.19
2023-10-29T05:53:53.855Z,96060.69
2023-10-29T05:56:21.547Z,96060.63
2023-10-29T05:58:49.784Z,96063.19
2023-10-29T06:01:17.420Z,96077.19
2023-10-29T06:03:45.285Z,96078.84
2023-10-29T06:06:12.947Z,96065.78
2023-10-29T06:08:40.742Z,96075.47
2023-10-29T06:11:08.340Z,96079.88
2023-10-29T06:13:35.907Z,96088.44
2023-10-29T06:16:09.220Z,96087.53
2023-10-29T06:18:36.984Z,96092.88
2023-10-29T06:21:04.988Z,96091.19
2023-10-29T06:23:32.866Z,96097.13
2023-10-29T06:26:00.531Z,96101.41
2023-10-29T06:28:28.139Z,96110.25
2023-10-29T06:30:55.798Z,96110.09
2023-10-29T06:33:23.496Z,96110.03
2023-10-29T06:35:51.141Z,96121.19
2023-10-29T06:38:18.758Z,96130.19
2023-10-29T06:40:46.404Z,96123.69
2023-10-29T06:43:13.985Z,96132.16
2023-10-29T06:45:41.719Z,96142.97
2023-10-29T06:48:09.394Z,96147.91
2023-10-29T06:50:37.812Z,96152.88
2023-10-29T06:53:06.923Z,96154.28
2023-10-29T06:55:36.640Z,96159.34
2023-10-29T06:58:05.153Z,96172.66
2023-10-29T07:00:33.090Z,96175.19
2023-10-29T07:03:01.226Z,96182.31
2023-10-29T07:05:29.162Z,96188.28
2023-10-29T07:07:56.741Z,96191.13
2023-10-29T07:10:24.425Z,96199.66
2023-10-29T07:12:54.176Z,96200.25
2023-10-29T07:15:21.795Z,96200.72
2023-10-29T07:17:49.451Z,96205.38
2023-10-29T07:20:17.142Z,96204.41
2023-10-29T07:22:44.759Z,96200.25
2023-10-29T07:25:12.705Z,96207.78
2023-10-29T07:27:40.339Z,96200.25
2023-10-29T07:30:08.887Z,96204.34
2023-10-29T07:32:36.862Z,96212.03
2023-10-29T07:35:05.064Z,96204.34
2023-10-29T07:37:33.092Z,96219.53
2023-10-29T07:40:00.696Z,96227.34
2023-10-29T07:42:28.318Z,96223.63
2023-10-29T07:44:56.074Z,96235.63
2023-10-29T07:47:23.651Z,96237.28
2023-10-29T07:49:51.314Z,96257.81
2023-10-29T07:52:18.893Z,96263.31
2023-10-29T07:54:46.769Z,96262.50
2023-10-29T07:57:15.089Z,96253.63
2023-10-29T07:59:42.735Z,96260.63
2023-10-29T08:02:10.302Z,96254.00
2023-10-29T08:04:37.966Z,96254.88
2023-10-29T08:07:05.709Z,96258.53
2023-10-29T08:09:33.770Z,96261.16
2023-10-29T08:12:01.371Z,96265.00
2023-10-29T08:14:29.737Z,96263.50
2023-10-29T08:16:57.305Z,96262.81
2023-10-29T08:19:27.594Z,96247.94
2023-10-29T08:21:55.182Z,96266.25
2023-10-29T08:24:22.751Z,96275.34
2023-10-29T08:26:51.115Z,96288.28
2023-10-29T08:29:18.801Z,96281.69
2023-10-29T08:31:46.384Z,96283.91
2023-10-29T08:34:13.995Z,96284.69
2023-10-29T08:36:41.916Z,96284.69
2023-10-29T08:39:10.250Z,96285.31
2023-10-29T08:41:37.936Z,96277.06
2023-10-29T08:44:05.968Z,96261.53
2023-10-29T08:46:33.596Z,96255.97
2023-10-29T08:49:01.202Z,96254.66
2023-10-29T08:51:28.771Z,96251.78
2023-10-29T08:53:58.462Z,96242.91
2023-10-29T08:56:26.143Z,96241.84
2023-10-29T08:58:53.722Z,96243.34
2023-10-29T09:01:21.737Z,96237.97
2023-10-29T09:03:49.458Z,96239.41
2023-10-29T09:06:17.404Z,96233.56
2023-10-29T09:08:45.043Z,96234.41
2023-10-29T09:11:16.084Z,96227.97
2023-10-29T09:13:44.108Z,96228.78
2023-10-29T09:16:12.248Z,96240.69
2023-10-29T09:18:40.845Z,96216.31
2023-10-29T09:21:08.563Z,96220.88
2023-10-29T09:23:36.272Z,96216.31
2023-10-29T09:26:04.167Z,96218.78
2023-10-29T09:28:31.716Z,96219.16
2023-10-29T09:30:59.261Z,96207.81
2023-10-29T09:33:27.194Z,96209.69
2023-10-29T09:35:54.892Z,96226.63
2023-10-29T09:38:22.481Z,96218.78
2023-10-29T09:40:56.703Z,96215.66
2023-10-29T09:43:32.470Z,96213.31
2023-10-29T09:46:05.857Z,96208.78
2023-10-29T09:48:35.560Z,96211.81
2023-10-29T09:51:05.924Z,96219.41
2023-10-29T09:53:37.143Z,96202.94
2023-10-29T09:56:09.916Z,96196.97
2023-10-29T09:58:38.024Z,96195.13
2023-10-29T10:01:06.385Z,96199.22
2023-10-29T10:03:34.251Z,96198.41
2023-10-29T10:06:02.659Z,96197.09
2023-10-29T10:08:31.844Z,96200.38
2023-10-29T10:11:00.336Z,96208.56
2023-10-29T10:13:39.418Z,96218.38
2023-10-29T10:16:16.045Z,96205.06
2023-10-29T10:18:51.493Z,96198.41
2023-10-29T10:21:24.454Z,96191.97
2023-10-29T10:23:57.332Z,96188.50
2023-10-29T10:26:35.145Z,96195.25
2023-10-29T10:29:06.348Z,96192.13
2023-10-29T10:31:36.582Z,96196.66
2023-10-29T10:34:19.077Z,96195.16
2023-10-29T10:36:51.759Z,96185.81
2023-10-29T10:39:26.866Z,96187.19
2023-10-29T10:41:54.792Z,96172.72
2023-10-29T10:44:23.357Z,96163.84
2023-10-29T10:46:59.119Z,96162.22
2023-10-29T10:49:31.675Z,96162.78
2023-10-29T10:52:02.384Z,96166.28
2023-10-29T10:54:30.843Z,96170.97
2023-10-29T10:57:01.972Z,96163.50
2023-10-29T10:59:30.944Z,96160.59
2023-10-29T11:01:59.022Z,96144.22
2023-10-29T11:04:28.381Z,96151.22
2023-10-29T11:06:56.978Z,96156.72
2023-10-29T11:09:24.955Z,96151.44
2023-10-29T11:11:57.842Z,96145.59
2023-10-29T11:14:26.763Z,96138.47
2023-10-29T11:16:59.859Z,96147.69
2023-10-29T11:19:48.040Z,96144.56
2023-10-29T11:22:32.309Z,96147.00
2023-10-29T11:25:29.357Z,96125.38
2023-10-29T11:27:56.995Z,96130.38
2023-10-29T11:30:28.702Z,96122.66
2023-10-29T11:33:11.334Z,96121.56
2023-10-29T11:35:40.670Z,96110.13
2023-10-29T11:38:34.332Z,96098.78
2023-10-29T11:41:39.885Z,96093.06
2023-10-29T11:44:23.152Z,96096.91
2023-10-29T11:46:57.087Z,96101.09
2023-10-29T11:49:28.191Z,96092.63
2023-10-29T11:52:05.410Z,96087.75
2023-10-29T11:54:35.277Z,96093.41
2023-10-29T11:57:05.800Z,96086.34
2023-10-29T11:59:33.790Z,96083.22
2023-10-29T12:02:01.590Z,96082.50
2023-10-29T12:04:33.333Z,96078.13
2023-10-29T12:07:01.141Z,96075.25
2023-10-29T12:09:28.919Z,96088.56
2023-10-29T12:11:57.305Z,96087.91
2023-10-29T12:14:47.024Z,96084.34
2023-10-29T12:17:15.709Z,96093.41
2023-10-29T12:19:46.273Z,96091.72
2023-10-29T12:22:21.389Z,96101.00
2023-10-29T12:25:02.299Z,96108.66
2023-10-29T12:27:31.364Z,96116.75
2023-10-29T12:29:59.288Z,96125.97
2023-10-29T12:32:28.102Z,96126.63
2023-10-29T12:34:58.791Z,96122.44
2023-10-29T12:37:28.296Z,96103.56
2023-10-29T12:40:01.032Z,96095.22
2023-10-29T12:42:54.029Z,96092.53
2023-10-29T12:45:32.509Z,96090.41
2023-10-29T12:48:10.095Z,96079.88
2023-10-29T12:50:53.874Z,96083.97
2023-10-29T12:53:25.697Z,96078.63
2023-10-29T12:55:54.505Z,96079.00
2023-10-29T12:58:22.532Z,96077.44
2023-10-29T13:00:55.306Z,96080.50
2023-10-29T13:03:26.048Z,96078.38
2023-10-29T13:05:55.629Z,96080.63
2023-10-29T13:08:27.433Z,96086.63
2023-10-29T13:10:55.104Z,96084.19
2023-10-29T13:13:26.321Z,96088.00
2023-10-29T13:15:54.035Z,96083.44
2023-10-29T13:18:21.702Z,96086.13
2023-10-29T13:20:50.238Z,96077.78
2023-10-29T13:23:17.905Z,96075.88
2023-10-29T13:25:45.479Z,96075.09
2023-10-29T13:28:13.046Z,96069.41
2023-10-29T13:30:40.594Z,96070.50
2023-10-29T13:33:09.354Z,96070.75
2023-10-29T13:35:40.276Z,96072.06
2023-10-29T13:38:09.461Z,96063.97
2023-10-29T13:40:40.255Z,96066.16
2023-10-29T13:43:08.152Z,96067.00
2023-10-29T13:45:36.003Z,96068.28
2023-10-29T13:48:05.716Z,96054.28
2023-10-29T13:50:38.834Z,96051.59
2023-10-29T13:53:07.015Z,96057.56
2023-10-29T13:55:34.609Z,96054.84
2023-10-29T13:58:03.549Z,96053.50
2023-10-29T14:00:32.174Z,96048.13
2023-10-29T14:02:59.938Z,96071.59
2023-10-29T14:05:28.459Z,96051.06
2023-10-29T14:07:58.738Z,96049.97
2023-10-29T14:10:26.397Z,96036.72
2023-10-29T14:12:54.028Z,96019.97
2023-10-29T14:15:21.641Z,96031.28
2023-10-29T14:17:49.470Z,96023.44
2023-10-29T14:20:17.120Z,96027.47
2023-10-29T14:22:44.793Z,96046.88
2023-10-29T14:25:14.589Z,96053.06
2023-10-29T14:27:42.177Z,96045.50
2023-10-29T14:30:10.508Z,96049.00
2023-10-29T14:32:38.393Z,96044.69
2023-10-29T14:35:07.097Z,96041.38
2023-10-29T14:37:34.681Z,96037.06
2023-10-29T14:40:03.566Z,96028.09
2023-10-29T14:42:31.381Z,96025.69
2023-10-29T14:44:59.141Z,96012.78
2023-10-29T14:47:26.867Z,96004.44
2023-10-29T14:49:54.444Z,95999.59
2023-10-29T14:52:21.998Z,95997.69
2023-10-29T14:54:49.757Z,95984.75
2023-10-29T14:57:29.129Z,95981.50
2023-10-29T14:59:57.705Z,95989.31
2023-10-29T15:02:25.617Z,96006.31
2023-10-29T15:04:56.586Z,96012.78
2023-10-29T15:07:24.414Z,96017.34
2023-10-29T15:09:52.448Z,96015.75
2023-10-29T15:12:20.658Z,96006.00
2023-10-29T15:14:48.489Z,96018.69
2023-10-29T15:17:20.927Z,96027.03
2023-10-29T15:19:54.938Z,96017.84
2023-10-29T15:22:22.643Z,96016.44
2023-10-29T15:24:50.725Z,96018.84
2023-10-29T15:27:18.490Z,96018.56
2023-10-29T15:29:47.808Z,96022.56
2023-10-29T15:32:15.379Z,96023.63
2023-10-29T15:34:42.976Z,96024.13
2023-10-29T15:37:10.565Z,96028.72
2023-10-29T15:39:38.791Z,96024.41
2023-10-29T15:42:06.931Z,96028.41
2023-10-29T15:44:34.590Z,96018.16
2023-10-29T15:47:02.205Z,96027.53
2023-10-29T15:49:29.929Z,96034.00
2023-10-29T15:51:58.602Z,96036.16
2023-10-29T15:54:28.631Z,96039.09
2023-10-29T15:56:56.254Z,96035.84
2023-10-29T15:59:24.638Z,96041.97
2023-10-29T16:01:53.374Z,96057.59
2023-10-29T16:04:21.141Z,96068.84
2023-10-29T16:06:48.787Z,96071.56
2023-10-29T16:09:16.799Z,96078.28
2023-10-29T16:11:48.259Z,96086.84
2023-10-29T16:14:16.298Z,96090.88
2023-10-29T16:16:44.752Z,96090.78
2023-10-29T16:19:12.414Z,96092.69
2023-10-29T16:21:40.015Z,96087.28
2023-10-29T16:24:08.071Z,96086.44
2023-10-29T16:26:36.551Z,96085.31
2023-10-29T16:29:04.137Z,96084.75
2023-10-29T16:31:31.742Z,96092.28
2023-10-29T16:33:59.665Z,96098.75
2023-10-29T16:36:27.431Z,96104.63
2023-10-29T16:38:56.115Z,96117.53
2023-10-29T16:41:23.745Z,96142.84
2023-10-29T16:43:54.426Z,96170.88
2023-10-29T16:46:22.392Z,96222.94
2023-10-29T16:48:50.178Z,96256.53
2023-10-29T16:51:17.824Z,96278.50
2023-10-29T16:53:45.403Z,96316.91
2023-10-29T16:56:13.583Z,96335.31
2023-10-29T16:58:43.002Z,96335.16
2023-10-29T17:01:14.053Z,96338.31
2023-10-29T17:03:42.109Z,96344.19
2023-10-29T17:06:10.111Z,96360.06
2023-10-29T17:08:37.801Z,96350.63
2023-10-29T17:11:05.360Z,96356.41
2023-10-29T17:13:33.131Z,96376.56
2023-10-29T17:16:05.409Z,96367.75
2023-10-29T17:18:33.830Z,96360.13
2023-10-29T17:21:02.631Z,96358.34
2023-10-29T17:23:30.439Z,96366.38
2023-10-29T17:25:58.228Z,96377.63
2023-10-29T17:28:25.950Z,96387.13
2023-10-29T17:30:53.606Z,96401.78
2023-10-29T17:33:21.911Z,96428.63
2023-10-29T17:35:49.522Z,96419.59
2023-10-29T17:38:17.086Z,96431.75
2023-10-29T17:40:44.662Z,96415.84
2023-10-29T17:43:14.811Z,96392.22
2023-10-29T17:45:44.416Z,96409.94
2023-10-29T17:48:14.010Z,96425.34
2023-10-29T17:50:42.937Z,96420.03
2023-10-29T17:53:11.117Z,96408.28
2023-10-29T17:55:38.777Z,96418.75
2023-10-29T17:58:06.478Z,96410.97
2023-10-29T18:00:34.477Z,96431.97
2023-10-29T18:03:02.396Z,96436.19
2023-10-29T18:05:30.095Z,96442.78
2023-10-29T18:07:57.652Z,96440.25
2023-10-29T18:10:26.882Z,96434.84
2023-10-29T18:12:54.455Z,96427.84
2023-10-29T18:15:22.090Z,96430.09
2023-10-29T18:17:49.700Z,96446.34
2023-10-29T18:20:17.405Z,96459.28
2023-10-29T18:22:45.061Z,96462.41
2023-10-29T18:25:12.910Z,96468.03
2023-10-29T18:27:41.263Z,96472.75
2023-10-29T18:30:11.456Z,96474.78
2023-10-29T18:32:39.130Z,96470.47
2023-10-29T18:35:07.127Z,96436.72
2023-10-29T18:37:34.927Z,96425.56
2023-10-29T18:40:02.581Z,96438.75
2023-10-29T18:42:30.157Z,96454.00
2023-10-29T18:44:58.159Z,96459.94
2023-10-29T18:47:25.777Z,96478.91
2023-10-29T18:49:53.444Z,96479.97
2023-10-29T18:52:21.065Z,96482.50
2023-10-29T18:54:48.695Z,96470.19
2023-10-29T18:57:16.669Z,96463.59
2023-10-29T18:59:44.403Z,96458.06
2023-10-29T19:02:12.147Z,96458.31
2023-10-29T19:04:39.899Z,96459.94
2023-10-29T19:07:07.561Z,96481.16
2023-10-29T19:09:35.296Z,96468.41
2023-10-29T19:12:05.188Z,96468.41
2023-10-29T19:14:34.337Z,96479.06
2023-10-29T19:17:03.721Z,96483.38
2023-10-29T19:19:31.292Z,96482.72
2023-10-29T19:21:58.892Z,96482.53
2023-10-29T19:24:26.512Z,96473.28
2023-10-29T19:26:54.141Z,96461.91
2023-10-29T19:29:21.754Z,96475.09
2023-10-29T19:31:49.349Z,96450.56
2023-10-29T19:34:17.351Z,96448.94
2023-10-29T19:36:44.945Z,96472.81
2023-10-29T19:39:14.284Z,96473.81
2023-10-29T19:41:41.918Z,96498.75
2023-10-29T19:44:09.554Z,96491.31
2023-10-29T19:46:37.646Z,96498.69
2023-10-29T19:49:05.291Z,96503.63
2023-10-29T19:51:32.889Z,96483.00
2023-10-29T19:54:01.527Z,96477.81
2023-10-29T19:56:29.691Z,96473.69
2023-10-29T19:58:57.517Z,96466.88
2023-10-29T20:01:25.175Z,96467.06
2023-10-29T20:03:52.898Z,96480.66
2023-10-29T20:06:20.810Z,96486.63
2023-10-29T20:08:49.390Z,96482.28
2023-10-29T20:11:16.991Z,96489.50
2023-10-29T20:13:48.565Z,96476.31
2023-10-29T20:16:16.234Z,96481.69
2023-10-29T20:18:44.250Z,96484.97
2023-10-29T20:21:18.072Z,96499.16
2023-10-29T20:23:48.156Z,96499.41
2023-10-29T20:26:20.740Z,96505.56
2023-10-29T20:28:53.056Z,96513.63
2023-10-29T20:31:21.636Z,96515.25
2023-10-29T20:33:51.094Z,96523.66
2023-10-29T20:36:19.113Z,96535.59
2023-10-29T20:38:46.762Z,96514.78
2023-10-29T20:41:14.370Z,96527.16
2023-10-29T20:43:42.136Z,96516.22
2023-10-29T20:46:10.646Z,96527.53
2023-10-29T20:48:38.963Z,96529.16
2023-10-29T20:51:07.889Z,96534.75
2023-10-29T20:53:35.599Z,96533.72
2023-10-29T20:56:05.672Z,96540.13
2023-10-29T20:58:33.528Z,96551.03
2023-10-29T21:01:04.560Z,96538.47
2023-10-29T21:03:32.358Z,96549.38
2023-10-29T21:06:00.817Z,96538.88
2023-10-29T21:08:28.723Z,96555.19
2023-10-29T21:11:09.558Z,96559.94
2023-10-29T21:13:37.457Z,96577.03
2023-10-29T21:16:07.209Z,96577.84
2023-10-29T21:18:36.680Z,96559.94
2023-10-29T21:21:05.063Z,96556.81
2023-10-29T21:23:32.807Z,96566.13
2023-10-29T21:26:00.465Z,96591.03
2023-10-29T21:28:28.302Z,96577.25
2023-10-29T21:30:56.081Z,96591.69
2023-10-29T21:33:23.918Z,96582.00
2023-10-29T21:35:51.915Z,96590.22
2023-10-29T21:38:20.142Z,96590.63
2023-10-29T21:40:47.730Z,96596.59
2023-10-29T21:43:15.746Z,96606.09
2023-10-29T21:45:43.369Z,96590.63
2023-10-29T21:48:11.485Z,96593.09
2023-10-29T21:50:41.891Z,96592.03
2023-10-29T21:53:10.352Z,96588.56
2023-10-29T21:55:38.522Z,96590.19
2023-10-29T21:58:09.968Z,96578.66
2023-10-29T22:00:37.912Z,96563.38
2023-10-29T22:03:06.037Z,96569.59
2023-10-29T22:05:34.183Z,96575.31
2023-10-29T22:08:02.620Z,96564.84
2023-10-29T22:10:30.972Z,96561.56
2023-10-29T22:12:58.685Z,96566.91
2023-10-29T22:15:28.943Z,96570.19
2023-10-29T22:17:56.970Z,96561.75
2023-10-29T22:20:25.276Z,96548.56
2023-10-29T22:22:52.881Z,96555.41
2023-10-29T22:25:20.619Z,96557.88
2023-10-29T22:27:48.216Z,96560.75
2023-10-29T22:30:15.879Z,96553.13
2023-10-29T22:32:43.512Z,96539.72
2023-10-29T22:35:11.497Z,96534.56
2023-10-29T22:37:39.211Z,96544.47
2023-10-29T22:40:07.615Z,96544.28
2023-10-29T22:42:35.221Z,96557.47
2023-10-29T22:45:02.863Z,96545.16
2023-10-29T22:47:30.809Z,96546.78
2023-10-29T22:49:58.472Z,96555.41
2023-10-29T22:52:26.053Z,96558.09
2023-10-29T22:54:53.742Z,96565.91
2023-10-29T22:57:21.334Z,96563.03
2023-10-29T22:59:51.974Z,96562.22
2023-10-29T23:02:19.990Z,96549.44
2023-10-29T23:04:47.606Z,96571.88
2023-10-29T23:07:15.162Z,96577.03
2023-10-29T23:09:42.934Z,96585.06
2023-10-29T23:12:10.588Z,96579.75
2023-10-29T23:14:38.402Z,96586.75
2023-10-29T23:17:06.085Z,96592.31
2023-10-29T23:19:35.110Z,96585.72
2023-10-29T23:22:02.812Z,96586.56
2023-10-29T23:24:30.514Z,96594.38
2023-10-29T23:26:58.109Z,96600.75
2023-10-29T23:29:25.658Z,96615.59
2023-10-29T23:31:53.372Z,96611.66
2023-10-29T23:34:22.628Z,96615.75
2023-10-29T23:36:50.306Z,96610.22
2023-10-29T23:39:17.888Z,96611.91
2023-10-29T23:41:45.457Z,96621.75
2023-10-29T23:44:13.052Z,96621.75
2023-10-29T23:46:40.664Z,96613.50
2023-10-29T23:49:09.352Z,96604.22
2023-10-29T23:51:37.065Z,96608.31
2023-10-29T23:54:05.393Z,96645.22
2023-10-29T23:56:33.469Z,96652.03
2023-10-29T23:59:01.083Z,96606.09
